world map with LIPF marked

LIPF - Airport

This information may not be accurate or current and is not valid for navigation or flight planning. No warranty of fitness for any purpose is made or implied.

flag of Italy

Donate via PayPal

Additional information is available on the NEW Great Circle Mapper

Location
City:  Ferrara, Italy
Name:S Luca
ICAO:LIPF

Details
Type:Airport (Aerodrome, Airfield)
Latitude:44°49'N (44.817)
Longitude:11°37'E (11.617)
Elevation:16 ft (5 m)
Runways:unknown number
Longest:2953 ft (900 m)

Time
Timezone:UTC+1 (DST+4)
Local Time:

Weather
METAR:LIPF  041355Z 06007KT CAVOK 11/02 Q1025 RMK SKC VIS MIN 9999

Related Locations
Nearby:
Farthest:CHT: 12034 mi / 19367 km
Waitangi [Tuuta], CIT, NZ

Find:

   beyond  
but within

Other Information
Maps:
Sources:

  


 


Great Circle Mapper   Great Circle Mapper
Great Circle Mapper FAQ   Great Circle Mapper FAQ
  Karl's Home Page
KLSē   KLSē Home
   GC on Facebook
Airlines of the World   Airlines of the World
Donate via PayPal


Copyright © 2004-2019, Karl L. Swartz. All rights reserved.
All trademarks mentioned herein belong to their respective owners.

Please see credits for attribution and copyright information.

Karl Swartz <karl@kls2.com>
  Powered by FreeBSD
Valid HTML 4.01!
Labeled with ICRA
hCard Microformat
Geo Microformat